sensor_id;sensor_type;location;lat;lon;timestamp;temperature;humidity
15617;DHT22;7908;51.688;7.130;2023-07-13T00:01:40;17.50;99.90
15617;DHT22;7908;51.688;7.130;2023-07-13T00:04:08;17.50;99.90
15617;DHT22;7908;51.688;7.130;2023-07-13T00:06:37;17.40;99.90
15617;DHT22;7908;51.688;7.130;2023-07-13T00:09:05;17.40;99.90
15617;DHT22;7908;51.688;7.130;2023-07-13T00:11:35;17.30;99.90
15617;DHT22;7908;51.688;7.130;2023-07-13T00:14:06;17.30;99.90
15617;DHT22;7908;51.688;7.130;2023-07-13T00:16:35;17.20;99.90
15617;DHT22;7908;51.688;7.130;2023-07-13T00:19:04;17.10;99.90
15617;DHT22;7908;51.688;7.130;2023-07-13T00:21:33;17.10;99.90
15617;DHT22;7908;51.688;7.130;2023-07-13T00:24:06;17.00;99.90
15617;DHT22;7908;51.688;7.130;2023-07-13T00:26:34;17.00;99.90
15617;DHT22;7908;51.688;7.130;2023-07-13T00:29:03;16.90;99.90
15617;DHT22;7908;51.688;7.130;2023-07-13T00:31:37;16.90;99.90
15617;DHT22;7908;51.688;7.130;2023-07-13T00:34:07;16.90;99.90
15617;DHT22;7908;51.688;7.130;2023-07-13T00:36:35;16.90;99.90
15617;DHT22;7908;51.688;7.130;2023-07-13T00:39:04;16.90;99.90
15617;DHT22;7908;51.688;7.130;2023-07-13T00:41:34;16.80;99.90
15617;DHT22;7908;51.688;7.130;2023-07-13T00:44:04;16.80;99.90
15617;DHT22;7908;51.688;7.130;2023-07-13T00:46:33;16.70;99.90
15617;DHT22;7908;51.688;7.130;2023-07-13T00:49:06;16.70;99.90
15617;DHT22;7908;51.688;7.130;2023-07-13T00:51:39;16.70;99.90
15617;DHT22;7908;51.688;7.130;2023-07-13T00:54:12;16.70;99.90
15617;DHT22;7908;51.688;7.130;2023-07-13T00:56:43;16.60;99.90
15617;DHT22;7908;51.688;7.130;2023-07-13T00:59:15;16.60;99.90
15617;DHT22;7908;51.688;7.130;2023-07-13T01:01:46;16.50;99.90
15617;DHT22;7908;51.688;7.130;2023-07-13T01:04:16;16.50;99.90
15617;DHT22;7908;51.688;7.130;2023-07-13T01:06:45;16.50;99.90
15617;DHT22;7908;51.688;7.130;2023-07-13T01:09:15;16.50;99.90
15617;DHT22;7908;51.688;7.130;2023-07-13T01:11:45;16.50;99.90
15617;DHT22;7908;51.688;7.130;2023-07-13T01:14:13;16.20;99.90
15617;DHT22;7908;51.688;7.130;2023-07-13T01:16:44;16.40;99.90
15617;DHT22;7908;51.688;7.130;2023-07-13T01:19:25;16.40;99.90
15617;DHT22;7908;51.688;7.130;2023-07-13T01:22:06;16.40;99.90
15617;DHT22;7908;51.688;7.130;2023-07-13T01:24:36;16.40;99.90
15617;DHT22;7908;51.688;7.130;2023-07-13T01:27:07;16.30;99.90
15617;DHT22;7908;51.688;7.130;2023-07-13T01:29:37;16.30;99.90
15617;DHT22;7908;51.688;7.130;2023-07-13T01:32:13;16.30;99.90
15617;DHT22;7908;51.688;7.130;2023-07-13T01:34:42;16.30;99.90
15617;DHT22;7908;51.688;7.130;2023-07-13T01:37:13;16.30;99.90
15617;DHT22;7908;51.688;7.130;2023-07-13T01:39:41;16.20;99.90
15617;DHT22;7908;51.688;7.130;2023-07-13T01:42:10;16.20;99.90
15617;DHT22;7908;51.688;7.130;2023-07-13T01:44:38;16.20;99.90
15617;DHT22;7908;51.688;7.130;2023-07-13T01:47:07;16.10;99.90
15617;DHT22;7908;51.688;7.130;2023-07-13T01:49:36;16.20;99.90
15617;DHT22;7908;51.688;7.130;2023-07-13T01:52:05;16.20;99.90
15617;DHT22;7908;51.688;7.130;2023-07-13T01:54:35;16.20;99.90
15617;DHT22;7908;51.688;7.130;2023-07-13T01:57:04;16.20;99.90
15617;DHT22;7908;51.688;7.130;2023-07-13T01:59:33;16.20;99.90
15617;DHT22;7908;51.688;7.130;2023-07-13T02:02:02;16.10;99.90
15617;DHT22;7908;51.688;7.130;2023-07-13T02:04:31;16.20;99.90
15617;DHT22;7908;51.688;7.130;2023-07-13T02:07:00;16.10;99.90
15617;DHT22;7908;51.688;7.130;2023-07-13T02:09:29;16.20;99.90
15617;DHT22;7908;51.688;7.130;2023-07-13T02:12:04;16.20;99.90
15617;DHT22;7908;51.688;7.130;2023-07-13T02:14:36;16.10;99.90
15617;DHT22;7908;51.688;7.130;2023-07-13T02:17:05;16.10;99.90
15617;DHT22;7908;51.688;7.130;2023-07-13T02:19:34;16.10;99.90
15617;DHT22;7908;51.688;7.130;2023-07-13T02:22:03;16.10;99.90
15617;DHT22;7908;51.688;7.130;2023-07-13T02:24:32;16.10;99.90
15617;DHT22;7908;51.688;7.130;2023-07-13T02:27:02;16.00;99.90
15617;DHT22;7908;51.688;7.130;2023-07-13T02:29:31;16.00;99.90
15617;DHT22;7908;51.688;7.130;2023-07-13T02:32:00;16.00;99.90
15617;DHT22;7908;51.688;7.130;2023-07-13T02:34:29;16.00;99.90
15617;DHT22;7908;51.688;7.130;2023-07-13T02:36:59;15.90;99.90
15617;DHT22;7908;51.688;7.130;2023-07-13T02:39:28;15.90;99.90
15617;DHT22;7908;51.688;7.130;2023-07-13T02:41:56;15.90;99.90
15617;DHT22;7908;51.688;7.130;2023-07-13T02:44:27;15.90;99.90
15617;DHT22;7908;51.688;7.130;2023-07-13T02:46:55;15.90;99.90
15617;DHT22;7908;51.688;7.130;2023-07-13T02:49:24;15.90;99.90
15617;DHT22;7908;51.688;7.130;2023-07-13T02:51:55;15.90;99.90
15617;DHT22;7908;51.688;7.130;2023-07-13T02:54:24;15.90;99.90
15617;DHT22;7908;51.688;7.130;2023-07-13T02:56:53;15.90;99.90
15617;DHT22;7908;51.688;7.130;2023-07-13T02:59:21;15.80;99.90
15617;DHT22;7908;51.688;7.130;2023-07-13T03:01:51;15.90;99.90
15617;DHT22;7908;51.688;7.130;2023-07-13T03:04:20;15.90;99.90
15617;DHT22;7908;51.688;7.130;2023-07-13T03:06:48;15.80;99.90
15617;DHT22;7908;51.688;7.130;2023-07-13T03:09:17;15.80;99.90
15617;DHT22;7908;51.688;7.130;2023-07-13T03:11:45;15.90;99.90
15617;DHT22;7908;51.688;7.130;2023-07-13T03:14:14;15.80;99.90
15617;DHT22;7908;51.688;7.130;2023-07-13T03:16:42;15.80;99.90
15617;DHT22;7908;51.688;7.130;2023-07-13T03:19:13;15.80;99.90
15617;DHT22;7908;51.688;7.130;2023-07-13T03:21:41;15.80;99.90
15617;DHT22;7908;51.688;7.130;2023-07-13T03:24:10;15.80;99.90
15617;DHT22;7908;51.688;7.130;2023-07-13T03:26:38;15.70;99.90
15617;DHT22;7908;51.688;7.130;2023-07-13T03:29:07;15.70;99.90
15617;DHT22;7908;51.688;7.130;2023-07-13T03:31:36;15.70;99.90
15617;DHT22;7908;51.688;7.130;2023-07-13T03:34:05;15.80;99.90
15617;DHT22;7908;51.688;7.130;2023-07-13T03:36:37;15.80;99.90
15617;DHT22;7908;51.688;7.130;2023-07-13T03:39:08;15.80;99.90
15617;DHT22;7908;51.688;7.130;2023-07-13T03:41:39;15.80;99.90
15617;DHT22;7908;51.688;7.130;2023-07-13T03:44:08;15.80;99.90
15617;DHT22;7908;51.688;7.130;2023-07-13T03:46:36;15.80;99.90
15617;DHT22;7908;51.688;7.130;2023-07-13T03:49:05;15.80;99.90
15617;DHT22;7908;51.688;7.130;2023-07-13T03:51:34;15.80;99.90
15617;DHT22;7908;51.688;7.130;2023-07-13T03:54:04;15.90;99.90
15617;DHT22;7908;51.688;7.130;2023-07-13T03:56:35;15.90;99.90
15617;DHT22;7908;51.688;7.130;2023-07-13T03:59:03;15.90;99.90
15617;DHT22;7908;51.688;7.130;2023-07-13T04:01:33;15.90;99.90
15617;DHT22;7908;51.688;7.130;2023-07-13T04:04:02;16.00;99.90
15617;DHT22;7908;51.688;7.130;2023-07-13T04:06:31;16.00;99.90
15617;DHT22;7908;51.688;7.130;2023-07-13T04:09:01;16.10;99.90
15617;DHT22;7908;51.688;7.130;2023-07-13T04:11:35;16.10;99.90
15617;DHT22;7908;51.688;7.130;2023-07-13T04:14:04;16.20;99.90
15617;DHT22;7908;51.688;7.130;2023-07-13T04:16:36;16.20;99.90
15617;DHT22;7908;51.688;7.130;2023-07-13T04:19:05;16.30;99.90
15617;DHT22;7908;51.688;7.130;2023-07-13T04:21:34;16.40;99.90
15617;DHT22;7908;51.688;7.130;2023-07-13T04:24:03;16.40;99.90
15617;DHT22;7908;51.688;7.130;2023-07-13T04:26:32;16.40;99.90
15617;DHT22;7908;51.688;7.130;2023-07-13T04:29:04;16.50;99.90
15617;DHT22;7908;51.688;7.130;2023-07-13T04:31:34;16.50;99.90
15617;DHT22;7908;51.688;7.130;2023-07-13T04:34:03;16.50;99.90
15617;DHT22;7908;51.688;7.130;2023-07-13T04:36:32;16.50;99.90
15617;DHT22;7908;51.688;7.130;2023-07-13T04:39:04;16.50;99.90
15617;DHT22;7908;51.688;7.130;2023-07-13T04:41:34;16.60;99.90
15617;DHT22;7908;51.688;7.130;2023-07-13T04:44:04;16.60;99.90
15617;DHT22;7908;51.688;7.130;2023-07-13T04:46:33;16.70;99.90
15617;DHT22;7908;51.688;7.130;2023-07-13T04:49:03;16.70;99.90
15617;DHT22;7908;51.688;7.130;2023-07-13T04:51:31;16.70;99.90
15617;DHT22;7908;51.688;7.130;2023-07-13T04:54:00;16.80;99.90
15617;DHT22;7908;51.688;7.130;2023-07-13T04:56:30;16.80;99.90
15617;DHT22;7908;51.688;7.130;2023-07-13T04:59:00;16.80;99.90
15617;DHT22;7908;51.688;7.130;2023-07-13T05:01:30;16.90;99.90
15617;DHT22;7908;51.688;7.130;2023-07-13T05:04:00;16.90;99.90
15617;DHT22;7908;51.688;7.130;2023-07-13T05:06:28;16.90;99.90
15617;DHT22;7908;51.688;7.130;2023-07-13T05:08:57;16.90;99.90
15617;DHT22;7908;51.688;7.130;2023-07-13T05:11:26;16.90;99.90
15617;DHT22;7908;51.688;7.130;2023-07-13T05:13:55;16.90;99.90
15617;DHT22;7908;51.688;7.130;2023-07-13T05:16:23;16.80;99.90
15617;DHT22;7908;51.688;7.130;2023-07-13T05:18:54;16.90;99.90
15617;DHT22;7908;51.688;7.130;2023-07-13T05:21:22;16.90;99.90
15617;DHT22;7908;51.688;7.130;2023-07-13T05:23:51;16.90;99.90
15617;DHT22;7908;51.688;7.130;2023-07-13T05:26:20;17.00;99.90
15617;DHT22;7908;51.688;7.130;2023-07-13T05:28:49;17.10;99.90
15617;DHT22;7908;51.688;7.130;2023-07-13T05:31:17;17.10;99.90
15617;DHT22;7908;51.688;7.130;2023-07-13T05:33:46;17.10;99.90
15617;DHT22;7908;51.688;7.130;2023-07-13T05:36:16;17.10;99.90
15617;DHT22;7908;51.688;7.130;2023-07-13T05:38:45;17.10;99.90
15617;DHT22;7908;51.688;7.130;2023-07-13T05:41:13;17.20;99.90
15617;DHT22;7908;51.688;7.130;2023-07-13T05:43:42;17.30;99.90
15617;DHT22;7908;51.688;7.130;2023-07-13T05:46:11;17.30;99.90
15617;DHT22;7908;51.688;7.130;2023-07-13T05:48:40;17.40;99.90
15617;DHT22;7908;51.688;7.130;2023-07-13T05:51:09;17.50;99.90
15617;DHT22;7908;51.688;7.130;2023-07-13T05:53:41;17.50;99.90
15617;DHT22;7908;51.688;7.130;2023-07-13T05:56:10;17.70;99.90
15617;DHT22;7908;51.688;7.130;2023-07-13T05:58:39;17.80;99.90
15617;DHT22;7908;51.688;7.130;2023-07-13T06:01:11;18.00;99.90
15617;DHT22;7908;51.688;7.130;2023-07-13T06:03:41;18.00;99.90
15617;DHT22;7908;51.688;7.130;2023-07-13T06:06:10;18.20;99.90
15617;DHT22;7908;51.688;7.130;2023-07-13T06:08:40;18.20;99.90
15617;DHT22;7908;51.688;7.130;2023-07-13T06:11:13;18.20;99.90
15617;DHT22;7908;51.688;7.130;2023-07-13T06:13:42;18.30;99.90
15617;DHT22;7908;51.688;7.130;2023-07-13T06:16:12;18.30;99.90
15617;DHT22;7908;51.688;7.130;2023-07-13T06:18:41;18.40;99.90
15617;DHT22;7908;51.688;7.130;2023-07-13T06:21:12;18.50;99.90
15617;DHT22;7908;51.688;7.130;2023-07-13T06:23:43;18.70;99.90
15617;DHT22;7908;51.688;7.130;2023-07-13T06:26:12;18.70;99.90
15617;DHT22;7908;51.688;7.130;2023-07-13T06:28:41;18.80;99.90
15617;DHT22;7908;51.688;7.130;2023-07-13T06:31:12;18.80;99.90
15617;DHT22;7908;51.688;7.130;2023-07-13T06:33:41;18.70;99.90
15617;DHT22;7908;51.688;7.130;2023-07-13T06:36:09;18.60;99.90
15617;DHT22;7908;51.688;7.130;2023-07-13T06:38:38;18.60;99.90
15617;DHT22;7908;51.688;7.130;2023-07-13T06:41:09;18.60;99.90
15617;DHT22;7908;51.688;7.130;2023-07-13T06:43:38;18.60;99.90
15617;DHT22;7908;51.688;7.130;2023-07-13T06:46:07;18.60;99.90
15617;DHT22;7908;51.688;7.130;2023-07-13T06:48:36;18.70;99.90
15617;DHT22;7908;51.688;7.130;2023-07-13T06:51:05;18.70;99.90
15617;DHT22;7908;51.688;7.130;2023-07-13T06:53:34;18.70;99.90
15617;DHT22;7908;51.688;7.130;2023-07-13T06:56:03;18.70;99.90
15617;DHT22;7908;51.688;7.130;2023-07-13T06:58:34;18.70;99.90
15617;DHT22;7908;51.688;7.130;2023-07-13T07:01:03;18.90;99.90
15617;DHT22;7908;51.688;7.130;2023-07-13T07:03:34;19.10;99.90
15617;DHT22;7908;51.688;7.130;2023-07-13T07:06:12;19.20;99.90
15617;DHT22;7908;51.688;7.130;2023-07-13T07:08:41;19.30;99.90
15617;DHT22;7908;51.688;7.130;2023-07-13T07:11:12;19.40;99.90
15617;DHT22;7908;51.688;7.130;2023-07-13T07:13:43;19.60;99.90
15617;DHT22;7908;51.688;7.130;2023-07-13T07:16:12;19.80;99.90
15617;DHT22;7908;51.688;7.130;2023-07-13T07:18:41;19.90;99.90
15617;DHT22;7908;51.688;7.130;2023-07-13T07:21:10;20.10;99.90
15617;DHT22;7908;51.688;7.130;2023-07-13T07:23:39;20.20;99.90
15617;DHT22;7908;51.688;7.130;2023-07-13T07:26:08;20.30;99.90
15617;DHT22;7908;51.688;7.130;2023-07-13T07:28:37;20.50;99.90
15617;DHT22;7908;51.688;7.130;2023-07-13T07:31:11;20.70;99.90
15617;DHT22;7908;51.688;7.130;2023-07-13T07:33:42;20.70;99.90
15617;DHT22;7908;51.688;7.130;2023-07-13T07:36:11;20.80;99.90
15617;DHT22;7908;51.688;7.130;2023-07-13T07:38:43;20.80;99.90
15617;DHT22;7908;51.688;7.130;2023-07-13T07:41:13;20.80;99.90
15617;DHT22;7908;51.688;7.130;2023-07-13T07:43:44;20.80;99.90
15617;DHT22;7908;51.688;7.130;2023-07-13T07:46:15;20.70;99.90
15617;DHT22;7908;51.688;7.130;2023-07-13T07:48:44;20.60;99.90
15617;DHT22;7908;51.688;7.130;2023-07-13T07:51:14;20.50;99.90
15617;DHT22;7908;51.688;7.130;2023-07-13T07:53:45;20.60;99.90
15617;DHT22;7908;51.688;7.130;2023-07-13T07:56:14;20.60;99.90
15617;DHT22;7908;51.688;7.130;2023-07-13T07:58:49;20.50;99.90
15617;DHT22;7908;51.688;7.130;2023-07-13T08:01:22;20.60;99.90
15617;DHT22;7908;51.688;7.130;2023-07-13T08:03:53;20.70;99.90
15617;DHT22;7908;51.688;7.130;2023-07-13T08:06:25;20.90;99.90
15617;DHT22;7908;51.688;7.130;2023-07-13T08:09:11;21.00;99.90
15617;DHT22;7908;51.688;7.130;2023-07-13T08:11:40;21.10;99.90
15617;DHT22;7908;51.688;7.130;2023-07-13T08:14:11;21.30;99.90
15617;DHT22;7908;51.688;7.130;2023-07-13T08:16:41;21.40;99.90
15617;DHT22;7908;51.688;7.130;2023-07-13T08:19:10;21.50;99.90
15617;DHT22;7908;51.688;7.130;2023-07-13T08:21:39;21.60;99.90
15617;DHT22;7908;51.688;7.130;2023-07-13T08:24:10;21.40;99.90
15617;DHT22;7908;51.688;7.130;2023-07-13T08:26:38;21.20;99.90
15617;DHT22;7908;51.688;7.130;2023-07-13T08:29:07;21.20;99.90
15617;DHT22;7908;51.688;7.130;2023-07-13T08:31:40;21.20;99.90
15617;DHT22;7908;51.688;7.130;2023-07-13T08:34:12;21.20;99.90
15617;DHT22;7908;51.688;7.130;2023-07-13T08:36:44;21.20;99.90
15617;DHT22;7908;51.688;7.130;2023-07-13T08:39:12;21.30;99.90
15617;DHT22;7908;51.688;7.130;2023-07-13T08:41:41;21.50;99.90
15617;DHT22;7908;51.688;7.130;2023-07-13T08:44:18;21.60;99.90
15617;DHT22;7908;51.688;7.130;2023-07-13T08:46:51;21.90;99.90
15617;DHT22;7908;51.688;7.130;2023-07-13T08:49:22;22.20;99.90
15617;DHT22;7908;51.688;7.130;2023-07-13T08:51:57;22.50;99.90
15617;DHT22;7908;51.688;7.130;2023-07-13T08:54:30;22.40;99.90
15617;DHT22;7908;51.688;7.130;2023-07-13T08:57:08;22.30;99.90
15617;DHT22;7908;51.688;7.130;2023-07-13T08:59:39;22.20;99.90
15617;DHT22;7908;51.688;7.130;2023-07-13T09:02:24;22.10;99.90
15617;DHT22;7908;51.688;7.130;2023-07-13T09:04:59;22.10;99.90
15617;DHT22;7908;51.688;7.130;2023-07-13T09:07:43;22.00;99.90
15617;DHT22;7908;51.688;7.130;2023-07-13T09:10:20;22.10;99.90
15617;DHT22;7908;51.688;7.130;2023-07-13T09:13:01;22.00;99.90
15617;DHT22;7908;51.688;7.130;2023-07-13T09:15:35;22.10;99.90
15617;DHT22;7908;51.688;7.130;2023-07-13T09:18:14;22.30;99.90
15617;DHT22;7908;51.688;7.130;2023-07-13T09:20:59;22.50;99.90
15617;DHT22;7908;51.688;7.130;2023-07-13T09:23:30;22.50;99.90
15617;DHT22;7908;51.688;7.130;2023-07-13T09:26:06;22.40;99.90
15617;DHT22;7908;51.688;7.130;2023-07-13T09:28:43;22.40;99.90
15617;DHT22;7908;51.688;7.130;2023-07-13T09:31:23;22.40;99.90
15617;DHT22;7908;51.688;7.130;2023-07-13T09:33:55;22.60;99.90
15617;DHT22;7908;51.688;7.130;2023-07-13T09:36:26;22.70;99.90
15617;DHT22;7908;51.688;7.130;2023-07-13T09:39:02;22.90;99.90
15617;DHT22;7908;51.688;7.130;2023-07-13T09:41:41;23.20;99.90
15617;DHT22;7908;51.688;7.130;2023-07-13T09:44:14;23.30;99.90
15617;DHT22;7908;51.688;7.130;2023-07-13T09:46:45;23.30;99.90
15617;DHT22;7908;51.688;7.130;2023-07-13T09:49:18;23.20;99.90
15617;DHT22;7908;51.688;7.130;2023-07-13T09:51:58;23.20;99.90
15617;DHT22;7908;51.688;7.130;2023-07-13T09:54:34;23.10;99.90
15617;DHT22;7908;51.688;7.130;2023-07-13T09:57:15;23.00;99.90
15617;DHT22;7908;51.688;7.130;2023-07-13T09:59:49;22.90;99.90
15617;DHT22;7908;51.688;7.130;2023-07-13T10:02:28;23.10;99.90
15617;DHT22;7908;51.688;7.130;2023-07-13T10:05:09;23.20;99.90
15617;DHT22;7908;51.688;7.130;2023-07-13T10:07:49;23.10;99.90
15617;DHT22;7908;51.688;7.130;2023-07-13T10:10:37;23.20;99.90
15617;DHT22;7908;51.688;7.130;2023-07-13T10:13:32;23.20;99.90
15617;DHT22;7908;51.688;7.130;2023-07-13T10:16:08;23.20;99.90
15617;DHT22;7908;51.688;7.130;2023-07-13T10:18:42;23.00;99.90
15617;DHT22;7908;51.688;7.130;2023-07-13T10:21:18;22.90;99.90
15617;DHT22;7908;51.688;7.130;2023-07-13T10:23:54;22.80;99.90
15617;DHT22;7908;51.688;7.130;2023-07-13T10:26:29;22.70;99.90
15617;DHT22;7908;51.688;7.130;2023-07-13T10:29:05;22.70;99.90
15617;DHT22;7908;51.688;7.130;2023-07-13T10:31:44;22.80;99.90
15617;DHT22;7908;51.688;7.130;2023-07-13T10:34:14;22.70;99.90
15617;DHT22;7908;51.688;7.130;2023-07-13T10:36:48;22.80;99.90
15617;DHT22;7908;51.688;7.130;2023-07-13T10:39:26;22.80;99.90
15617;DHT22;7908;51.688;7.130;2023-07-13T10:42:08;23.00;99.90
15617;DHT22;7908;51.688;7.130;2023-07-13T10:44:43;23.10;99.90
15617;DHT22;7908;51.688;7.130;2023-07-13T10:47:17;23.10;99.90
15617;DHT22;7908;51.688;7.130;2023-07-13T10:49:55;23.10;99.90
15617;DHT22;7908;51.688;7.130;2023-07-13T10:52:48;23.00;99.90
15617;DHT22;7908;51.688;7.130;2023-07-13T10:55:37;23.00;99.90
15617;DHT22;7908;51.688;7.130;2023-07-13T10:58:14;22.80;99.90
15617;DHT22;7908;51.688;7.130;2023-07-13T11:00:53;22.80;99.90
15617;DHT22;7908;51.688;7.130;2023-07-13T11:03:28;22.80;99.90
15617;DHT22;7908;51.688;7.130;2023-07-13T11:06:08;22.80;99.90
15617;DHT22;7908;51.688;7.130;2023-07-13T11:08:56;23.00;99.90
15617;DHT22;7908;51.688;7.130;2023-07-13T11:11:44;23.20;99.90
15617;DHT22;7908;51.688;7.130;2023-07-13T11:14:34;23.40;99.90
15617;DHT22;7908;51.688;7.130;2023-07-13T11:17:32;23.40;99.90
15617;DHT22;7908;51.688;7.130;2023-07-13T11:20:39;23.40;99.90
15617;DHT22;7908;51.688;7.130;2023-07-13T11:23:30;23.60;99.90
15617;DHT22;7908;51.688;7.130;2023-07-13T11:26:42;23.70;99.90
15617;DHT22;7908;51.688;7.130;2023-07-13T11:29:27;23.90;99.90
15617;DHT22;7908;51.688;7.130;2023-07-13T11:32:23;24.00;99.90
15617;DHT22;7908;51.688;7.130;2023-07-13T11:34:57;24.10;99.90
15617;DHT22;7908;51.688;7.130;2023-07-13T11:37:33;24.20;99.90
15617;DHT22;7908;51.688;7.130;2023-07-13T11:40:11;24.30;99.90
15617;DHT22;7908;51.688;7.130;2023-07-13T11:42:49;24.30;99.90
15617;DHT22;7908;51.688;7.130;2023-07-13T11:45:22;24.40;99.90
15617;DHT22;7908;51.688;7.130;2023-07-13T11:48:26;24.50;99.90
15617;DHT22;7908;51.688;7.130;2023-07-13T11:51:01;24.70;99.90
15617;DHT22;7908;51.688;7.130;2023-07-13T11:53:40;24.60;99.90
15617;DHT22;7908;51.688;7.130;2023-07-13T11:56:11;24.50;99.90
15617;DHT22;7908;51.688;7.130;2023-07-13T11:58:49;24.40;99.90
15617;DHT22;7908;51.688;7.130;2023-07-13T12:01:22;24.30;99.90
15617;DHT22;7908;51.688;7.130;2023-07-13T12:03:53;24.50;99.90
15617;DHT22;7908;51.688;7.130;2023-07-13T12:06:29;24.40;99.90
15617;DHT22;7908;51.688;7.130;2023-07-13T12:09:09;24.20;99.90
15617;DHT22;7908;51.688;7.130;2023-07-13T12:11:42;24.10;99.90
15617;DHT22;7908;51.688;7.130;2023-07-13T12:14:16;24.10;99.90
15617;DHT22;7908;51.688;7.130;2023-07-13T12:16:49;24.20;99.90
15617;DHT22;7908;51.688;7.130;2023-07-13T12:19:25;24.50;99.90
15617;DHT22;7908;51.688;7.130;2023-07-13T12:21:57;24.50;99.90
15617;DHT22;7908;51.688;7.130;2023-07-13T12:24:29;24.60;99.90
15617;DHT22;7908;51.688;7.130;2023-07-13T12:27:02;24.50;99.90
15617;DHT22;7908;51.688;7.130;2023-07-13T12:29:37;24.70;99.90
15617;DHT22;7908;51.688;7.130;2023-07-13T12:32:09;24.60;99.90
15617;DHT22;7908;51.688;7.130;2023-07-13T12:34:52;24.60;99.90
15617;DHT22;7908;51.688;7.130;2023-07-13T12:37:34;24.60;99.90
15617;DHT22;7908;51.688;7.130;2023-07-13T12:40:12;24.60;99.90
15617;DHT22;7908;51.688;7.130;2023-07-13T12:42:50;24.70;99.90
15617;DHT22;7908;51.688;7.130;2023-07-13T12:45:24;24.90;99.90
15617;DHT22;7908;51.688;7.130;2023-07-13T12:47:59;25.00;99.90
15617;DHT22;7908;51.688;7.130;2023-07-13T12:50:39;25.10;99.90
15617;DHT22;7908;51.688;7.130;2023-07-13T12:53:19;25.00;99.90
15617;DHT22;7908;51.688;7.130;2023-07-13T12:55:50;24.80;99.90
15617;DHT22;7908;51.688;7.130;2023-07-13T12:58:25;24.50;99.90
15617;DHT22;7908;51.688;7.130;2023-07-13T13:00:58;24.30;99.90
15617;DHT22;7908;51.688;7.130;2023-07-13T13:03:31;23.80;99.90
15617;DHT22;7908;51.688;7.130;2023-07-13T13:06:28;23.30;99.90
15617;DHT22;7908;51.688;7.130;2023-07-13T13:08:58;22.60;99.90
15617;DHT22;7908;51.688;7.130;2023-07-13T13:11:32;21.70;99.90
15617;DHT22;7908;51.688;7.130;2023-07-13T13:14:03;20.40;99.90
15617;DHT22;7908;51.688;7.130;2023-07-13T13:16:50;19.60;99.90
15617;DHT22;7908;51.688;7.130;2023-07-13T13:19:26;18.80;99.90
15617;DHT22;7908;51.688;7.130;2023-07-13T13:21:57;18.40;99.90
15617;DHT22;7908;51.688;7.130;2023-07-13T13:24:29;18.00;99.90
15617;DHT22;7908;51.688;7.130;2023-07-13T13:27:08;17.80;99.90
15617;DHT22;7908;51.688;7.130;2023-07-13T13:29:46;17.80;99.90
15617;DHT22;7908;51.688;7.130;2023-07-13T13:32:36;17.60;99.90
15617;DHT22;7908;51.688;7.130;2023-07-13T13:35:16;17.50;99.90
15617;DHT22;7908;51.688;7.130;2023-07-13T13:37:47;17.50;99.90
15617;DHT22;7908;51.688;7.130;2023-07-13T13:40:25;17.40;99.90
15617;DHT22;7908;51.688;7.130;2023-07-13T13:43:00;17.40;99.90
15617;DHT22;7908;51.688;7.130;2023-07-13T13:45:30;17.40;99.90
15617;DHT22;7908;51.688;7.130;2023-07-13T13:48:14;17.20;99.90
15617;DHT22;7908;51.688;7.130;2023-07-13T13:50:45;17.20;99.90
15617;DHT22;7908;51.688;7.130;2023-07-13T13:53:17;17.10;99.90
15617;DHT22;7908;51.688;7.130;2023-07-13T13:55:48;17.00;99.90
15617;DHT22;7908;51.688;7.130;2023-07-13T13:58:18;17.00;99.90
15617;DHT22;7908;51.688;7.130;2023-07-13T14:00:52;17.20;99.90
15617;DHT22;7908;51.688;7.130;2023-07-13T14:03:34;17.30;99.90
15617;DHT22;7908;51.688;7.130;2023-07-13T14:06:03;17.50;99.90
15617;DHT22;7908;51.688;7.130;2023-07-13T14:08:34;17.70;99.90
15617;DHT22;7908;51.688;7.130;2023-07-13T14:11:04;17.60;99.90
15617;DHT22;7908;51.688;7.130;2023-07-13T14:13:37;17.40;99.90
15617;DHT22;7908;51.688;7.130;2023-07-13T14:16:18;17.20;99.90
15617;DHT22;7908;51.688;7.130;2023-07-13T14:18:51;17.10;99.90
15617;DHT22;7908;51.688;7.130;2023-07-13T14:21:23;17.10;99.90
15617;DHT22;7908;51.688;7.130;2023-07-13T14:23:55;17.20;99.90
15617;DHT22;7908;51.688;7.130;2023-07-13T14:26:32;17.20;99.90
15617;DHT22;7908;51.688;7.130;2023-07-13T14:31:51;17.30;99.90
15617;DHT22;7908;51.688;7.130;2023-07-13T14:34:31;17.50;99.90
15617;DHT22;7908;51.688;7.130;2023-07-13T14:37:03;17.70;99.90
15617;DHT22;7908;51.688;7.130;2023-07-13T14:39:38;17.80;99.90
15617;DHT22;7908;51.688;7.130;2023-07-13T14:42:11;17.70;99.90
15617;DHT22;7908;51.688;7.130;2023-07-13T14:44:54;17.60;99.90
15617;DHT22;7908;51.688;7.130;2023-07-13T14:47:25;17.80;99.90
15617;DHT22;7908;51.688;7.130;2023-07-13T14:49:59;17.90;99.90
15617;DHT22;7908;51.688;7.130;2023-07-13T14:52:33;18.00;99.90
15617;DHT22;7908;51.688;7.130;2023-07-13T14:55:11;18.20;99.90
15617;DHT22;7908;51.688;7.130;2023-07-13T14:57:49;18.20;99.90
15617;DHT22;7908;51.688;7.130;2023-07-13T15:00:25;18.30;99.90
15617;DHT22;7908;51.688;7.130;2023-07-13T15:03:01;18.50;99.90
15617;DHT22;7908;51.688;7.130;2023-07-13T15:05:36;18.60;99.90
15617;DHT22;7908;51.688;7.130;2023-07-13T15:08:09;18.80;99.90
15617;DHT22;7908;51.688;7.130;2023-07-13T15:10:38;18.90;99.90
15617;DHT22;7908;51.688;7.130;2023-07-13T15:13:20;19.10;99.90
15617;DHT22;7908;51.688;7.130;2023-07-13T15:15:57;19.20;99.90
15617;DHT22;7908;51.688;7.130;2023-07-13T15:18:26;19.00;99.90
15617;DHT22;7908;51.688;7.130;2023-07-13T15:20:58;18.90;99.90
15617;DHT22;7908;51.688;7.130;2023-07-13T15:23:34;19.00;99.90
15617;DHT22;7908;51.688;7.130;2023-07-13T15:26:04;19.10;99.90
15617;DHT22;7908;51.688;7.130;2023-07-13T15:28:40;19.20;99.90
15617;DHT22;7908;51.688;7.130;2023-07-13T15:31:23;19.30;99.90
15617;DHT22;7908;51.688;7.130;2023-07-13T15:33:58;19.20;99.90
15617;DHT22;7908;51.688;7.130;2023-07-13T15:36:41;19.30;99.90
15617;DHT22;7908;51.688;7.130;2023-07-13T15:39:26;19.40;99.90
15617;DHT22;7908;51.688;7.130;2023-07-13T15:42:03;19.40;99.90
15617;DHT22;7908;51.688;7.130;2023-07-13T15:44:52;19.40;99.90
15617;DHT22;7908;51.688;7.130;2023-07-13T15:47:24;19.40;99.90
15617;DHT22;7908;51.688;7.130;2023-07-13T15:49:57;19.50;99.90
15617;DHT22;7908;51.688;7.130;2023-07-13T15:52:41;19.40;99.90
15617;DHT22;7908;51.688;7.130;2023-07-13T15:55:21;19.40;99.90
15617;DHT22;7908;51.688;7.130;2023-07-13T15:58:07;19.50;99.90
15617;DHT22;7908;51.688;7.130;2023-07-13T16:00:42;19.40;99.90
15617;DHT22;7908;51.688;7.130;2023-07-13T16:03:18;19.10;99.90
15617;DHT22;7908;51.688;7.130;2023-07-13T16:05:56;19.00;99.90
15617;DHT22;7908;51.688;7.130;2023-07-13T16:08:29;19.00;99.90
15617;DHT22;7908;51.688;7.130;2023-07-13T16:11:03;18.90;99.90
15617;DHT22;7908;51.688;7.130;2023-07-13T16:13:36;18.80;99.90
15617;DHT22;7908;51.688;7.130;2023-07-13T16:16:09;18.70;99.90
15617;DHT22;7908;51.688;7.130;2023-07-13T16:18:42;18.70;99.90
15617;DHT22;7908;51.688;7.130;2023-07-13T16:21:27;18.60;99.90
15617;DHT22;7908;51.688;7.130;2023-07-13T16:24:00;18.60;99.90
15617;DHT22;7908;51.688;7.130;2023-07-13T16:26:34;18.50;99.90